Time;durP1;ratioP1;P1;durP2;ratioP2;P2;SDS_P1;SDS_P2;PMS_P1;PMS_P2;Temp;Humidity;BMP_temperature;BMP_pressure;BME280_temperature;BME280_humidity;BME280_pressure;Samples;Min_cycle;Max_cycle;Signal;HPM_P1;HPM_P2
2023/12/19 00:01:33;;;;;;;14.07;5.43;;;8.70;99.90;;;;;;5004638;28;20041;-80
2023/12/19 00:03:58;;;;;;;9.93;4.55;;;8.70;99.90;;;;;;5023285;28;20032;-80
2023/12/19 00:06:24;;;;;;;6.93;4.25;;;8.70;99.90;;;;;;5026473;28;20446;-79
2023/12/19 00:08:50;;;;;;;4.85;3.03;;;8.80;99.90;;;;;;5023323;28;20120;-77
2023/12/19 00:11:16;;;;;;;5.75;3.22;;;8.80;99.90;;;;;;5012001;28;20038;-77
2023/12/19 00:13:42;;;;;;;7.47;4.38;;;8.80;99.90;;;;;;5019904;28;20041;-76
2023/12/19 00:16:07;;;;;;;6.78;3.92;;;8.80;99.90;;;;;;5026042;28;20056;-76
2023/12/19 00:18:33;;;;;;;7.38;4.28;;;8.80;99.90;;;;;;5020051;28;20052;-76
2023/12/19 00:21:00;;;;;;;9.68;3.70;;;8.80;99.90;;;;;;5029777;28;20091;-75
2023/12/19 00:23:30;;;;;;;6.05;3.85;;;8.80;99.90;;;;;;5020230;28;20056;-75
2023/12/19 00:25:57;;;;;;;4.40;3.00;;;8.80;99.90;;;;;;5027027;28;20037;-75
2023/12/19 00:28:23;;;;;;;8.82;2.55;;;8.80;99.90;;;;;;5019319;28;20037;-74
2023/12/19 00:30:48;;;;;;;9.98;3.70;;;8.80;99.90;;;;;;5009730;28;20416;-75
2023/12/19 00:33:14;;;;;;;7.60;4.43;;;8.80;99.90;;;;;;5018769;28;20041;-74
2023/12/19 00:35:40;;;;;;;7.10;3.75;;;8.90;99.90;;;;;;5027715;28;20080;-74
2023/12/19 00:38:05;;;;;;;4.75;2.92;;;8.80;99.90;;;;;;5016025;28;20041;-75
2023/12/19 00:40:31;;;;;;;5.53;3.70;;;8.90;99.90;;;;;;5023391;28;20556;-75
2023/12/19 00:42:57;;;;;;;7.10;3.42;;;8.80;99.90;;;;;;5015418;28;20125;-75
2023/12/19 00:45:23;;;;;;;5.78;3.70;;;8.80;99.90;;;;;;5039312;28;20048;-75
2023/12/19 00:47:48;;;;;;;8.82;3.45;;;8.90;99.90;;;;;;5026304;28;20111;-74
2023/12/19 00:50:15;;;;;;;4.65;2.85;;;8.80;99.90;;;;;;5022235;28;20358;-74
2023/12/19 00:52:42;;;;;;;7.13;3.33;;;8.90;99.90;;;;;;5018377;28;20493;-75
2023/12/19 00:55:08;;;;;;;6.07;3.42;;;8.90;99.90;;;;;;5024029;28;20060;-75
2023/12/19 00:57:33;;;;;;;4.50;3.35;;;8.90;99.90;;;;;;5023026;28;20046;-74
2023/12/19 00:59:59;;;;;;;6.57;2.97;;;8.90;99.90;;;;;;5017663;28;20397;-75
2023/12/19 01:02:27;;;;;;;4.05;2.38;;;8.90;99.90;;;;;;5045244;28;20041;-75
2023/12/19 01:04:56;;;;;;;6.63;3.85;;;8.90;99.90;;;;;;5023533;28;20120;-75
2023/12/19 01:07:22;;;;;;;4.38;3.20;;;8.90;99.90;;;;;;5024617;28;20119;-74
2023/12/19 01:09:48;;;;;;;7.30;3.60;;;8.90;99.90;;;;;;5021874;28;20041;-75
2023/12/19 01:12:13;;;;;;;7.93;3.85;;;8.90;99.90;;;;;;5015226;28;20099;-76
2023/12/19 01:14:39;;;;;;;8.07;3.83;;;8.80;99.90;;;;;;5020518;28;20073;-76
2023/12/19 01:17:05;;;;;;;4.82;2.97;;;8.90;99.90;;;;;;5024758;28;20110;-75
2023/12/19 01:19:31;;;;;;;4.18;3.20;;;8.90;99.90;;;;;;5028420;28;20472;-76
2023/12/19 01:21:56;;;;;;;7.20;3.58;;;8.90;99.90;;;;;;5026413;28;20033;-76
2023/12/19 01:24:22;;;;;;;6.68;3.85;;;8.90;99.90;;;;;;5020640;28;20082;-75
2023/12/19 01:26:49;;;;;;;5.90;3.33;;;8.90;99.90;;;;;;5018690;28;20113;-76
2023/12/19 01:29:15;;;;;;;5.63;3.13;;;8.90;99.90;;;;;;5024682;28;20045;-74
2023/12/19 01:31:41;;;;;;;4.75;2.80;;;8.90;99.90;;;;;;5023012;28;20037;-76
2023/12/19 01:34:06;;;;;;;5.00;2.70;;;8.90;99.90;;;;;;5019874;28;20048;-76
2023/12/19 01:36:32;;;;;;;6.95;3.33;;;8.90;99.90;;;;;;5023657;28;20041;-74
2023/12/19 01:38:58;;;;;;;4.28;2.53;;;8.90;99.90;;;;;;5022806;28;20096;-76
2023/12/19 01:41:23;;;;;;;4.18;2.13;;;8.80;99.90;;;;;;5024340;28;20049;-77
2023/12/19 01:43:49;;;;;;;3.33;2.20;;;8.90;99.90;;;;;;5024365;28;20117;-77
2023/12/19 01:46:19;;;;;;;3.45;2.00;;;8.90;99.90;;;;;;5018900;28;20040;-77
2023/12/19 01:48:45;;;;;;;3.97;2.10;;;8.90;99.90;;;;;;5025877;28;20049;-77
2023/12/19 01:51:12;;;;;;;3.42;2.35;;;8.90;99.90;;;;;;5020193;28;20053;-78
2023/12/19 01:53:39;;;;;;;3.22;2.13;;;8.90;99.90;;;;;;5021489;28;20182;-77
2023/12/19 01:56:05;;;;;;;3.25;1.70;;;8.90;99.90;;;;;;5009419;28;20505;-78
2023/12/19 01:58:33;;;;;;;9.05;2.80;;;8.90;99.90;;;;;;5028747;28;20045;-77
2023/12/19 02:00:59;;;;;;;3.45;2.10;;;8.90;99.90;;;;;;5022141;28;20056;-78
2023/12/19 02:03:24;;;;;;;3.47;1.83;;;8.90;99.90;;;;;;5007788;28;20037;-78
2023/12/19 02:05:52;;;;;;;3.45;2.42;;;8.80;99.90;;;;;;5022891;28;20369;-77
2023/12/19 02:08:18;;;;;;;5.88;2.28;;;8.90;99.90;;;;;;5025836;28;20553;-78
2023/12/19 02:10:44;;;;;;;3.72;2.35;;;8.90;99.90;;;;;;5031190;28;20176;-79
2023/12/19 02:13:10;;;;;;;5.03;2.15;;;8.90;99.90;;;;;;5021917;28;20060;-79
2023/12/19 02:15:35;;;;;;;3.85;2.67;;;8.90;99.90;;;;;;5026179;28;20168;-79
2023/12/19 02:18:15;;;;;;;5.15;2.38;;;8.80;99.90;;;;;;5021439;28;20048;-79
2023/12/19 02:20:41;;;;;;;4.63;2.30;;;8.90;99.90;;;;;;5018951;28;20046;-79
2023/12/19 02:23:07;;;;;;;3.47;2.45;;;8.80;99.90;;;;;;5024418;28;20053;-77
2023/12/19 02:25:33;;;;;;;2.28;1.63;;;8.80;99.90;;;;;;5015706;28;20053;-77
2023/12/19 02:28:00;;;;;;;3.42;2.30;;;8.80;99.90;;;;;;5008592;28;20472;-78
2023/12/19 02:30:26;;;;;;;3.25;2.08;;;8.80;99.90;;;;;;5030103;28;20038;-78
2023/12/19 02:32:52;;;;;;;3.78;2.20;;;8.80;99.90;;;;;;5017278;28;20045;-79
2023/12/19 02:35:18;;;;;;;2.83;1.90;;;8.70;99.90;;;;;;5010071;28;20067;-77
2023/12/19 02:37:43;;;;;;;3.60;2.10;;;8.70;99.90;;;;;;5024065;28;20043;-77
2023/12/19 02:40:11;;;;;;;5.15;2.65;;;8.80;99.90;;;;;;5007681;28;20076;-78
2023/12/19 02:42:41;;;;;;;3.03;2.08;;;8.70;99.90;;;;;;5024140;28;20140;-78
2023/12/19 02:45:09;;;;;;;5.13;3.15;;;8.70;99.90;;;;;;5027690;28;20041;-78
2023/12/19 02:47:34;;;;;;;3.50;2.28;;;8.70;99.90;;;;;;5019386;28;20038;-77
2023/12/19 02:50:00;;;;;;;2.90;1.70;;;8.70;99.90;;;;;;5023264;28;20052;-78
2023/12/19 02:52:26;;;;;;;3.22;1.90;;;8.70;99.90;;;;;;5020077;28;20048;-77
2023/12/19 02:54:52;;;;;;;5.25;2.17;;;8.70;99.90;;;;;;5018234;28;20033;-77
2023/12/19 02:57:17;;;;;;;3.50;1.45;;;8.70;99.90;;;;;;5020756;28;20034;-79
2023/12/19 02:59:43;;;;;;;2.75;1.60;;;8.70;99.90;;;;;;5020962;28;20038;-79
2023/12/19 03:02:09;;;;;;;3.78;1.70;;;8.70;99.90;;;;;;5026424;28;20512;-80
2023/12/19 03:04:34;;;;;;;4.45;2.47;;;8.70;99.90;;;;;;5004058;28;20041;-79
2023/12/19 03:07:01;;;;;;;2.42;1.80;;;8.70;99.90;;;;;;5019187;28;20110;-79
2023/12/19 03:09:27;;;;;;;2.65;1.38;;;8.60;99.90;;;;;;5037548;28;20323;-80
2023/12/19 03:12:02;;;;;;;3.80;2.33;;;8.60;99.90;;;;;;5017811;28;20374;-79
2023/12/19 03:14:28;;;;;;;2.67;1.65;;;8.60;99.90;;;;;;5021922;28;20042;-79
2023/12/19 03:16:53;;;;;;;3.78;1.83;;;8.60;99.90;;;;;;5028729;28;20532;-79
2023/12/19 03:19:19;;;;;;;2.47;1.98;;;8.70;99.90;;;;;;5006459;28;20037;-79
2023/12/19 03:21:45;;;;;;;2.70;1.25;;;8.60;99.90;;;;;;5022882;28;20045;-79
2023/12/19 03:24:10;;;;;;;2.58;1.38;;;8.60;99.90;;;;;;5022047;28;20568;-79
2023/12/19 03:26:36;;;;;;;4.20;3.13;;;8.60;99.90;;;;;;5021776;28;20040;-78
2023/12/19 03:29:02;;;;;;;3.70;2.17;;;8.60;99.90;;;;;;5028210;28;20033;-79
2023/12/19 03:31:27;;;;;;;2.70;1.15;;;8.60;99.90;;;;;;5020067;28;20092;-77
2023/12/19 03:33:53;;;;;;;2.40;1.77;;;8.60;99.90;;;;;;5025752;28;20037;-79
2023/12/19 03:36:19;;;;;;;3.72;1.45;;;8.60;99.90;;;;;;5007468;28;20352;-80
2023/12/19 03:38:45;;;;;;;3.00;1.40;;;8.60;99.90;;;;;;5020027;28;20053;-81
2023/12/19 03:41:11;;;;;;;3.53;1.98;;;8.60;99.90;;;;;;5018147;28;20107;-81
2023/12/19 03:43:36;;;;;;;2.08;1.45;;;8.60;99.90;;;;;;5027905;28;20481;-82
2023/12/19 03:46:04;;;;;;;2.58;1.73;;;8.60;99.90;;;;;;5022111;28;20038;-80
2023/12/19 03:48:30;;;;;;;1.48;1.35;;;8.60;99.90;;;;;;5022033;28;20045;-80
2023/12/19 03:50:57;;;;;;;2.78;1.70;;;8.60;99.90;;;;;;5030531;28;20067;-79
2023/12/19 03:53:22;;;;;;;2.10;1.15;;;8.60;99.90;;;;;;5034054;28;20029;-79
2023/12/19 03:58:16;;;;;;;3.40;2.25;;;8.60;99.90;;;;;;5018931;28;20050;-78
2023/12/19 04:00:42;;;;;;;2.88;1.65;;;8.60;99.90;;;;;;5003932;28;20045;-78
2023/12/19 04:03:07;;;;;;;3.72;2.13;;;8.60;99.90;;;;;;5000162;28;20501;-78
2023/12/19 04:05:33;;;;;;;2.95;1.40;;;8.60;99.90;;;;;;5004286;28;20063;-78
2023/12/19 04:07:59;;;;;;;1.52;1.30;;;8.60;99.90;;;;;;4968278;28;20030;-78
2023/12/19 04:10:24;;;;;;;3.03;1.52;;;8.60;99.90;;;;;;4999372;28;20038;-78
2023/12/19 04:12:50;;;;;;;3.80;2.10;;;8.60;99.90;;;;;;5001630;28;20051;-78
2023/12/19 04:15:16;;;;;;;2.05;1.10;;;8.60;99.90;;;;;;4999996;28;20127;-78
2023/12/19 04:17:41;;;;;;;3.35;1.92;;;8.60;99.90;;;;;;4991905;28;20045;-78
2023/12/19 04:20:07;;;;;;;1.77;1.33;;;8.60;99.90;;;;;;4997132;28;20129;-78
2023/12/19 04:22:33;;;;;;;2.33;1.60;;;8.60;99.90;;;;;;4986242;28;20041;-78
2023/12/19 04:24:59;;;;;;;2.25;1.67;;;8.60;99.90;;;;;;4995893;28;20406;-78
2023/12/19 04:27:25;;;;;;;2.65;1.90;;;8.60;99.90;;;;;;4980384;28;20044;-78
2023/12/19 04:29:54;;;;;;;2.25;1.05;;;8.60;99.90;;;;;;4991940;28;20033;-78
2023/12/19 04:32:20;;;;;;;1.98;1.15;;;8.60;99.90;;;;;;4988492;28;20033;-78
2023/12/19 04:34:46;;;;;;;3.80;1.83;;;8.60;99.90;;;;;;5000509;28;20034;-78
2023/12/19 04:37:12;;;;;;;2.85;1.52;;;8.60;99.90;;;;;;4978778;28;20050;-78
2023/12/19 04:39:37;;;;;;;3.40;1.42;;;8.60;99.90;;;;;;5002728;28;20099;-78
2023/12/19 04:42:07;;;;;;;3.03;2.05;;;8.60;99.90;;;;;;5002641;28;20081;-78
2023/12/19 04:44:36;;;;;;;2.25;1.73;;;8.60;99.90;;;;;;5002170;28;20124;-78
2023/12/19 04:47:02;;;;;;;2.15;1.75;;;8.60;99.90;;;;;;4998230;28;20649;-78
2023/12/19 04:49:28;;;;;;;4.35;2.30;;;8.70;99.90;;;;;;4971550;28;20035;-78
2023/12/19 04:51:54;;;;;;;2.00;1.40;;;8.60;99.90;;;;;;4998652;28;20095;-78
2023/12/19 04:54:19;;;;;;;2.72;1.33;;;8.70;99.90;;;;;;4998841;28;20041;-78
2023/12/19 04:56:45;;;;;;;3.60;1.85;;;8.70;99.90;;;;;;4974724;28;20130;-78
2023/12/19 04:59:11;;;;;;;1.23;1.00;;;8.70;99.90;;;;;;4981310;28;20054;-78
2023/12/19 05:01:40;;;;;;;2.67;1.25;;;8.70;99.90;;;;;;4980176;28;20042;-78
2023/12/19 05:04:06;;;;;;;3.13;1.67;;;8.70;99.90;;;;;;4995920;28;20053;-78
2023/12/19 05:06:33;;;;;;;3.65;2.55;;;8.70;99.90;;;;;;4975097;28;20121;-78
2023/12/19 05:08:59;;;;;;;4.40;2.55;;;8.70;99.90;;;;;;4999065;28;20042;-78
2023/12/19 05:11:25;;;;;;;2.90;1.35;;;8.70;99.90;;;;;;4998574;28;20034;-78
2023/12/19 05:13:50;;;;;;;2.30;1.25;;;8.70;99.90;;;;;;4964551;28;20042;-78
2023/12/19 05:16:18;;;;;;;2.83;1.45;;;8.70;99.90;;;;;;4980027;28;20066;-78
2023/12/19 05:18:45;;;;;;;2.13;1.63;;;8.70;99.90;;;;;;4993082;28;20054;-78
2023/12/19 05:21:11;;;;;;;2.70;0.90;;;8.70;99.90;;;;;;4997104;28;20046;-78
2023/12/19 05:23:39;;;;;;;2.85;1.60;;;8.80;99.90;;;;;;4969384;28;20030;-78
2023/12/19 05:26:06;;;;;;;1.85;1.15;;;8.70;99.90;;;;;;4996329;28;20100;-78
2023/12/19 05:28:34;;;;;;;3.00;1.50;;;8.70;99.90;;;;;;4974632;28;20050;-78
2023/12/19 05:30:59;;;;;;;3.75;1.63;;;8.70;99.90;;;;;;4997844;28;20081;-78
2023/12/19 05:33:27;;;;;;;2.33;1.40;;;8.80;99.90;;;;;;4976740;28;20041;-78
2023/12/19 05:35:53;;;;;;;2.70;1.15;;;8.80;99.90;;;;;;4989776;28;20088;-78
2023/12/19 05:38:19;;;;;;;1.30;1.00;;;8.80;99.90;;;;;;4996484;28;20076;-78
2023/12/19 05:40:45;;;;;;;1.75;1.13;;;8.80;99.90;;;;;;4977028;28;20042;-77
2023/12/19 05:43:16;;;;;;;1.77;1.20;;;8.70;99.90;;;;;;4971473;28;20035;-77
2023/12/19 05:45:41;;;;;;;1.48;1.10;;;8.80;99.90;;;;;;4992843;28;20046;-78
2023/12/19 05:48:08;;;;;;;2.00;1.13;;;8.80;99.90;;;;;;4991387;28;20710;-78
2023/12/19 05:50:34;;;;;;;1.15;0.95;;;8.80;99.90;;;;;;4997308;28;20062;-78
2023/12/19 05:53:00;;;;;;;1.90;0.80;;;8.80;99.90;;;;;;4994879;28;21309;-78
2023/12/19 05:55:26;;;;;;;1.20;0.88;;;8.80;99.90;;;;;;4995867;28;20878;-78
2023/12/19 05:57:52;;;;;;;2.13;1.00;;;8.80;99.90;;;;;;4995921;28;20129;-78
2023/12/19 06:00:18;;;;;;;2.67;1.20;;;8.80;99.90;;;;;;4991616;28;20593;-78
2023/12/19 06:02:44;;;;;;;1.42;0.75;;;8.90;99.90;;;;;;4988243;28;20156;-78
2023/12/19 06:05:10;;;;;;;1.10;0.88;;;8.80;99.90;;;;;;4991541;28;20046;-78
2023/12/19 06:07:36;;;;;;;1.25;0.93;;;8.80;99.90;;;;;;4995678;28;20493;-78
2023/12/19 06:10:13;;;;;;;1.73;1.00;;;8.80;99.90;;;;;;4996281;28;20486;-78
2023/12/19 06:12:40;;;;;;;1.25;0.60;;;8.80;99.90;;;;;;4998390;28;20133;-78
2023/12/19 06:15:11;;;;;;;1.52;0.85;;;8.80;99.90;;;;;;4988815;28;20141;-78
2023/12/19 06:17:46;;;;;;;1.15;0.65;;;8.80;99.90;;;;;;4995490;28;20033;-78
2023/12/19 06:20:12;;;;;;;1.85;0.98;;;8.80;99.90;;;;;;4989712;28;20503;-78
2023/12/19 06:22:39;;;;;;;1.48;0.63;;;8.80;99.90;;;;;;4994080;28;20430;-78
2023/12/19 06:25:05;;;;;;;1.15;0.65;;;8.80;99.90;;;;;;4969227;28;20506;-78
2023/12/19 06:27:32;;;;;;;1.55;0.55;;;8.80;99.90;;;;;;4981035;28;20046;-78
2023/12/19 06:29:58;;;;;;;1.83;1.02;;;8.90;99.90;;;;;;4973916;28;20038;-78
2023/12/19 06:32:24;;;;;;;0.85;0.30;;;8.80;99.90;;;;;;4971798;28;20096;-78
2023/12/19 06:34:49;;;;;;;1.35;0.90;;;8.80;99.90;;;;;;4976058;28;20590;-78
2023/12/19 06:37:15;;;;;;;3.47;1.20;;;8.90;99.90;;;;;;4992981;28;20571;-78
2023/12/19 06:39:41;;;;;;;1.48;0.70;;;8.80;99.90;;;;;;4964648;28;20077;-77
2023/12/19 06:42:07;;;;;;;1.15;0.70;;;8.80;99.90;;;;;;4977498;28;20057;-78
2023/12/19 06:44:33;;;;;;;1.70;0.43;;;8.80;99.90;;;;;;4993172;28;20030;-78
2023/12/19 06:46:59;;;;;;;2.00;1.00;;;8.90;99.90;;;;;;4979416;28;20834;-78
2023/12/19 06:49:24;;;;;;;1.55;0.75;;;8.80;99.90;;;;;;4979531;28;20034;-78
2023/12/19 06:51:52;;;;;;;0.73;0.40;;;8.90;99.90;;;;;;4975334;28;20152;-78
2023/12/19 06:54:17;;;;;;;1.25;0.70;;;8.90;99.90;;;;;;4999948;28;20048;-78
2023/12/19 06:56:43;;;;;;;1.95;1.10;;;8.90;99.90;;;;;;4982414;28;20053;-78
2023/12/19 06:59:09;;;;;;;0.95;0.80;;;8.90;99.90;;;;;;4983580;28;20616;-78
2023/12/19 07:01:35;;;;;;;1.70;0.95;;;8.90;99.90;;;;;;4980105;28;20041;-78
2023/12/19 07:04:01;;;;;;;1.35;0.90;;;8.90;99.90;;;;;;4983243;28;20512;-78
2023/12/19 07:06:27;;;;;;;1.05;0.77;;;8.90;99.90;;;;;;5000368;28;20099;-78
2023/12/19 07:08:53;;;;;;;0.98;0.65;;;8.90;99.90;;;;;;4999427;28;20037;-77
2023/12/19 07:11:21;;;;;;;1.63;1.23;;;8.90;99.90;;;;;;4979174;28;20030;-78
2023/12/19 07:13:46;;;;;;;1.75;0.55;;;8.90;99.90;;;;;;5000294;28;20116;-77
2023/12/19 07:16:17;;;;;;;1.80;0.95;;;9.00;99.90;;;;;;5004179;28;20041;-77
2023/12/19 07:18:44;;;;;;;0.52;0.30;;;9.00;99.90;;;;;;4996215;28;20045;-77
2023/12/19 07:21:20;;;;;;;1.55;1.10;;;9.00;99.90;;;;;;5000115;28;20083;-77
2023/12/19 07:23:47;;;;;;;1.33;0.75;;;9.00;99.90;;;;;;4978352;28;20068;-78
2023/12/19 07:26:22;;;;;;;2.25;0.70;;;9.00;99.90;;;;;;5000206;28;20046;-78
2023/12/19 07:28:50;;;;;;;0.68;0.60;;;9.00;99.90;;;;;;4997568;28;20026;-78
2023/12/19 07:31:23;;;;;;;1.00;0.68;;;9.00;99.90;;;;;;5001393;28;20049;-78
2023/12/19 07:33:57;;;;;;;1.60;0.85;;;9.00;99.90;;;;;;4999466;28;20458;-78
2023/12/19 07:36:26;;;;;;;1.00;0.80;;;9.00;99.90;;;;;;4994342;28;20053;-78
2023/12/19 07:38:52;;;;;;;1.88;1.00;;;9.00;99.90;;;;;;5002038;28;20056;-78
2023/12/19 07:41:19;;;;;;;0.73;0.65;;;9.00;99.90;;;;;;4998440;28;20069;-78
2023/12/19 07:43:45;;;;;;;2.55;1.33;;;9.00;99.90;;;;;;4985720;28;20222;-78
2023/12/19 07:46:11;;;;;;;1.35;0.98;;;9.00;99.90;;;;;;5003078;28;20527;-78
2023/12/19 07:48:37;;;;;;;2.15;0.90;;;9.00;99.90;;;;;;4996372;28;20037;-78
2023/12/19 07:51:03;;;;;;;1.52;0.90;;;9.00;99.90;;;;;;4986768;28;20359;-78
2023/12/19 07:53:32;;;;;;;1.50;0.80;;;9.10;99.90;;;;;;5000485;28;20048;-78
2023/12/19 07:56:03;;;;;;;1.55;0.75;;;9.00;99.90;;;;;;4984054;28;20046;-78
2023/12/19 07:58:30;;;;;;;1.27;0.77;;;9.10;99.90;;;;;;4993308;28;20042;-78
2023/12/19 08:00:56;;;;;;;0.70;0.63;;;9.10;99.90;;;;;;5001927;28;20053;-78
2023/12/19 08:03:26;;;;;;;1.08;0.70;;;9.10;99.90;;;;;;4984833;28;20421;-79
2023/12/19 08:05:53;;;;;;;2.03;1.20;;;9.10;99.90;;;;;;5002641;28;20099;-78
2023/12/19 08:08:20;;;;;;;0.40;0.35;;;9.10;99.90;;;;;;4997166;28;20076;-78
2023/12/19 08:10:46;;;;;;;1.33;1.02;;;9.20;99.90;;;;;;4984650;28;20122;-78
2023/12/19 08:13:12;;;;;;;1.67;0.63;;;9.20;99.90;;;;;;4999423;28;20478;-78
2023/12/19 08:15:41;;;;;;;1.58;0.80;;;9.20;99.90;;;;;;4993951;28;20080;-78
2023/12/19 08:18:07;;;;;;;1.83;1.00;;;9.20;99.90;;;;;;4995140;28;20060;-78
2023/12/19 08:20:33;;;;;;;1.33;0.80;;;9.30;99.90;;;;;;5003550;28;20044;-78
2023/12/19 08:22:59;;;;;;;1.63;1.10;;;9.30;99.90;;;;;;4998612;28;20030;-78
2023/12/19 08:25:25;;;;;;;1.98;0.95;;;9.30;99.90;;;;;;4995387;28;20042;-78
2023/12/19 08:27:51;;;;;;;1.55;0.88;;;9.30;99.90;;;;;;4998355;28;20493;-78
2023/12/19 08:30:17;;;;;;;1.60;1.45;;;9.30;99.90;;;;;;5001230;28;20433;-78
2023/12/19 08:32:43;;;;;;;0.68;0.40;;;9.40;99.90;;;;;;4997988;28;20049;-78
2023/12/19 08:35:09;;;;;;;1.35;0.80;;;9.30;99.90;;;;;;4998126;28;20041;-78
2023/12/19 08:37:35;;;;;;;1.75;0.88;;;9.40;99.90;;;;;;5000475;28;20070;-78
2023/12/19 08:40:03;;;;;;;2.03;0.93;;;9.40;99.90;;;;;;5002587;28;20049;-78
2023/12/19 08:42:29;;;;;;;1.17;0.80;;;9.40;99.90;;;;;;4983461;28;20073;-78
2023/12/19 08:44:56;;;;;;;0.73;0.40;;;9.40;99.90;;;;;;4977812;28;20041;-78
2023/12/19 08:47:25;;;;;;;0.82;0.50;;;9.40;99.90;;;;;;4998513;28;20042;-78
2023/12/19 08:49:52;;;;;;;2.20;0.95;;;9.50;99.90;;;;;;4979866;28;20041;-78
2023/12/19 08:52:22;;;;;;;1.55;0.98;;;9.50;99.90;;;;;;5003284;28;20033;-78
2023/12/19 08:54:48;;;;;;;1.38;0.70;;;9.50;99.90;;;;;;4995579;28;20038;-78
2023/12/19 08:57:14;;;;;;;2.00;1.25;;;9.50;99.90;;;;;;5002331;28;20580;-78
2023/12/19 08:59:40;;;;;;;1.55;1.05;;;9.50;99.90;;;;;;4998012;28;20514;-78
2023/12/19 09:02:06;;;;;;;3.40;1.98;;;9.50;99.90;;;;;;4989102;28;20044;-78
2023/12/19 09:04:32;;;;;;;1.30;0.80;;;9.60;99.90;;;;;;4997292;28;20039;-78
2023/12/19 09:06:59;;;;;;;1.40;0.90;;;9.60;99.90;;;;;;5003180;28;20482;-78
2023/12/19 09:09:25;;;;;;;2.25;1.17;;;9.60;99.90;;;;;;4985205;28;20072;-78
2023/12/19 09:11:51;;;;;;;1.20;1.00;;;9.60;99.90;;;;;;4984166;28;20069;-78
2023/12/19 09:14:17;;;;;;;1.35;0.93;;;9.60;99.90;;;;;;4982428;28;20068;-78
2023/12/19 09:16:46;;;;;;;2.35;0.98;;;9.60;99.90;;;;;;5000571;28;20034;-78
2023/12/19 09:19:15;;;;;;;1.00;0.70;;;9.70;99.90;;;;;;5001433;28;20063;-78
2023/12/19 09:21:41;;;;;;;1.42;0.98;;;9.70;99.90;;;;;;4997550;28;20426;-78
2023/12/19 09:24:07;;;;;;;1.60;0.93;;;9.70;99.90;;;;;;4997514;28;20045;-78
2023/12/19 09:26:33;;;;;;;1.83;1.35;;;9.70;99.90;;;;;;4986432;28;20508;-78
2023/12/19 09:28:59;;;;;;;4.78;1.25;;;9.70;99.90;;;;;;5000004;28;20041;-78
2023/12/19 09:31:24;;;;;;;4.07;0.90;;;9.70;99.90;;;;;;4982441;28;20125;-78
2023/12/19 09:33:50;;;;;;;2.15;1.25;;;9.70;99.90;;;;;;4986774;28;20049;-78
2023/12/19 09:36:23;;;;;;;1.83;1.30;;;9.80;99.90;;;;;;4996414;28;20181;-78
2023/12/19 09:38:49;;;;;;;2.92;1.17;;;9.70;99.90;;;;;;4969330;28;20046;-78
2023/12/19 09:41:16;;;;;;;2.03;1.50;;;9.80;99.90;;;;;;4980098;28;20042;-78
2023/12/19 09:43:41;;;;;;;2.00;1.23;;;9.70;99.90;;;;;;5000478;28;20056;-77
2023/12/19 09:46:08;;;;;;;0.95;0.70;;;9.80;99.90;;;;;;5001623;28;20042;-78
2023/12/19 09:48:36;;;;;;;1.58;0.90;;;9.80;99.90;;;;;;4984446;28;20366;-78
2023/12/19 09:51:05;;;;;;;2.40;1.55;;;9.80;99.90;;;;;;4996437;28;20034;-78
2023/12/19 09:53:35;;;;;;;5.43;1.45;;;9.80;99.90;;;;;;4972021;28;20550;-78
2023/12/19 09:56:01;;;;;;;2.60;1.35;;;9.80;99.90;;;;;;4974122;28;20037;-78
2023/12/19 09:58:31;;;;;;;0.98;0.70;;;9.80;99.90;;;;;;4998448;28;20137;-78
2023/12/19 10:01:00;;;;;;;1.73;1.33;;;9.80;99.90;;;;;;4989721;28;20046;-78
2023/12/19 10:03:29;;;;;;;3.38;1.45;;;9.80;99.90;;;;;;4997962;28;20070;-78
2023/12/19 10:05:56;;;;;;;1.45;0.95;;;9.90;99.90;;;;;;4991874;28;20042;-78
2023/12/19 10:08:22;;;;;;;2.00;0.98;;;9.80;99.90;;;;;;4997130;28;20520;-78
2023/12/19 10:10:48;;;;;;;2.45;1.00;;;9.90;99.90;;;;;;4992888;28;20074;-78
2023/12/19 10:13:31;;;;;;;1.35;1.15;;;9.90;99.90;;;;;;4997727;28;20599;-78
2023/12/19 10:16:06;;;;;;;2.08;0.88;;;9.90;99.90;;;;;;4982387;28;20042;-78
2023/12/19 10:18:33;;;;;;;1.13;0.60;;;9.90;99.90;;;;;;4998081;28;20053;-78
2023/12/19 10:21:08;;;;;;;3.97;1.20;;;9.90;99.90;;;;;;4979799;28;20517;-78
2023/12/19 10:23:37;;;;;;;1.77;0.80;;;9.80;99.90;;;;;;4982582;28;20034;-78
2023/12/19 10:26:04;;;;;;;1.70;1.20;;;9.90;99.90;;;;;;5002461;28;20041;-78
2023/12/19 10:28:30;;;;;;;2.42;1.35;;;9.80;99.90;;;;;;4998054;28;20084;-78
2023/12/19 10:31:14;;;;;;;1.60;0.90;;;9.80;99.90;;;;;;4975084;28;20038;-78
2023/12/19 10:33:48;;;;;;;1.58;1.15;;;9.90;99.90;;;;;;5003963;28;20098;-78
2023/12/19 10:36:24;;;;;;;1.40;1.10;;;9.90;99.90;;;;;;4999157;28;20128;-78
2023/12/19 10:38:51;;;;;;;0.85;0.60;;;9.80;99.90;;;;;;4996471;28;20042;-78
2023/12/19 10:41:40;;;;;;;1.88;1.10;;;9.90;99.90;;;;;;4983739;28;20034;-79
2023/12/19 10:44:07;;;;;;;0.73;0.63;;;9.90;99.90;;;;;;4990333;28;20041;-79
2023/12/19 10:46:33;;;;;;;1.50;1.00;;;9.90;99.90;;;;;;5000372;28;20050;-78
2023/12/19 10:49:03;;;;;;;1.30;0.68;;;9.90;99.90;;;;;;5004196;28;20445;-78
2023/12/19 10:51:29;;;;;;;0.60;0.57;;;9.90;99.90;;;;;;5004688;28;20100;-79
2023/12/19 10:54:18;;;;;;;1.70;0.98;;;9.90;99.90;;;;;;4989275;28;20133;-78
2023/12/19 10:57:09;;;;;;;1.52;0.70;;;9.90;99.90;;;;;;4998483;28;20050;-78
2023/12/19 10:59:51;;;;;;;1.90;0.75;;;9.90;99.90;;;;;;4994981;28;20054;-78
2023/12/19 11:02:35;;;;;;;1.75;1.20;;;9.90;99.90;;;;;;5003261;28;20128;-78
2023/12/19 11:05:28;;;;;;;1.33;0.80;;;9.90;99.90;;;;;;4969257;28;20050;-78
2023/12/19 11:07:58;;;;;;;1.92;1.27;;;9.90;99.90;;;;;;4983136;28;20510;-78
2023/12/19 11:10:27;;;;;;;2.53;1.20;;;9.90;99.90;;;;;;4997036;28;20143;-78
2023/12/19 11:12:53;;;;;;;1.95;1.17;;;9.90;99.90;;;;;;4999453;28;20042;-78
2023/12/19 11:15:20;;;;;;;1.27;0.68;;;9.90;99.90;;;;;;4996791;28;20691;-78
2023/12/19 11:17:55;;;;;;;1.52;0.88;;;9.90;99.90;;;;;;4988677;28;20458;-78
2023/12/19 11:20:35;;;;;;;2.83;1.40;;;9.90;99.90;;;;;;5002232;28;20044;-78
2023/12/19 11:23:04;;;;;;;1.50;1.10;;;9.90;99.90;;;;;;4967983;28;20084;-78
2023/12/19 11:25:41;;;;;;;1.67;0.70;;;9.90;99.90;;;;;;5000731;28;20046;-78
2023/12/19 11:28:07;;;;;;;1.40;0.95;;;9.90;99.90;;;;;;4992062;28;20532;-78
2023/12/19 11:30:43;;;;;;;1.88;1.23;;;9.90;99.90;;;;;;4979334;28;20037;-78
2023/12/19 11:33:13;;;;;;;2.03;1.70;;;10.00;99.90;;;;;;4997700;28;20053;-78
2023/12/19 11:35:40;;;;;;;1.35;0.88;;;9.90;99.90;;;;;;5021072;28;20505;-78
2023/12/19 11:38:14;;;;;;;1.48;1.15;;;9.90;99.90;;;;;;4997462;28;20120;-78
2023/12/19 11:40:47;;;;;;;;;;;9.90;99.90;;;;;;4984932;28;20041;-78
2023/12/19 11:43:28;;;;;;;1.10;0.75;;;9.90;99.90;;;;;;4990150;28;20354;-78
2023/12/19 11:46:04;;;;;;;2.38;1.20;;;9.90;99.90;;;;;;4995703;28;20049;-78
2023/12/19 11:48:37;;;;;;;1.38;0.98;;;9.90;99.90;;;;;;4995527;28;20041;-78
2023/12/19 11:51:07;;;;;;;1.63;1.25;;;9.90;99.90;;;;;;5000719;28;20069;-78
2023/12/19 11:53:34;;;;;;;2.00;1.73;;;9.90;99.90;;;;;;4981475;28;20076;-78
2023/12/19 11:56:08;;;;;;;1.40;1.02;;;10.00;99.90;;;;;;4994881;28;20089;-78
2023/12/19 11:58:35;;;;;;;1.42;0.77;;;9.90;99.90;;;;;;4986621;28;20133;-78
2023/12/19 12:01:02;;;;;;;1.73;1.45;;;10.00;99.90;;;;;;5000159;28;20104;-78
2023/12/19 12:03:28;;;;;;;0.73;0.47;;;10.00;99.90;;;;;;5000961;28;20043;-78
2023/12/19 12:05:54;;;;;;;2.08;1.38;;;10.00;99.90;;;;;;4996432;28;20073;-78
2023/12/19 12:08:21;;;;;;;1.52;1.15;;;10.00;99.90;;;;;;4999206;28;20041;-78
2023/12/19 12:11:07;;;;;;;1.77;1.05;;;10.00;99.90;;;;;;5002148;28;20140;-78
2023/12/19 12:13:35;;;;;;;1.73;0.98;;;10.00;99.90;;;;;;5002617;28;20058;-78
2023/12/19 12:16:01;;;;;;;1.80;1.00;;;10.00;99.90;;;;;;4992964;28;20042;-78
2023/12/19 12:18:30;;;;;;;0.85;0.57;;;10.00;99.90;;;;;;4999273;28;20509;-78
2023/12/19 12:21:16;;;;;;;1.67;0.88;;;10.00;99.90;;;;;;5000139;28;20038;-78
2023/12/19 12:23:42;;;;;;;1.73;1.02;;;10.00;99.90;;;;;;4995941;28;20488;-78
2023/12/19 12:26:08;;;;;;;0.73;0.65;;;10.00;99.90;;;;;;4979299;28;20702;-78
2023/12/19 12:28:35;;;;;;;1.17;0.57;;;10.00;99.90;;;;;;5000940;28;20066;-78
2023/12/19 12:31:01;;;;;;;0.90;0.50;;;10.00;99.90;;;;;;4980003;28;20069;-78
2023/12/19 12:33:28;;;;;;;0.98;0.50;;;10.00;99.90;;;;;;4983768;28;20048;-78
2023/12/19 12:35:57;;;;;;;1.42;1.00;;;10.00;99.90;;;;;;4980813;28;20044;-78
2023/12/19 12:38:24;;;;;;;0.55;0.50;;;10.00;99.90;;;;;;4998973;28;20044;-78
2023/12/19 12:40:55;;;;;;;1.52;0.80;;;10.00;99.90;;;;;;4998893;28;20137;-78
2023/12/19 12:43:37;;;;;;;1.13;0.88;;;10.00;99.90;;;;;;4981288;28;20479;-78
2023/12/19 12:46:03;;;;;;;0.32;0.32;;;10.00;99.90;;;;;;4981882;28;20038;-78
2023/12/19 12:48:29;;;;;;;1.15;0.70;;;10.00;99.90;;;;;;4984692;28;20041;-78
2023/12/19 12:50:55;;;;;;;1.65;0.57;;;10.00;99.90;;;;;;4995320;28;20064;-78
2023/12/19 12:53:21;;;;;;;0.73;0.52;;;10.10;99.90;;;;;;4996777;28;20042;-78
2023/12/19 12:55:46;;;;;;;1.00;0.57;;;10.10;99.90;;;;;;4998855;28;20041;-78
2023/12/19 12:58:17;;;;;;;0.80;0.60;;;10.10;99.90;;;;;;4998436;28;20469;-78
2023/12/19 13:00:44;;;;;;;1.13;0.63;;;10.10;99.90;;;;;;4977118;28;20046;-77